Airfield :
LOGIN :

Register | Disclaimer

   EN    FR    IT 

 










Legend :    VFR   Marginal VFR   IFR   Intensive IFR   Very Intensive IFR
Visi :
Ceiling :
>= 8 km
>= 3000ft
5 to 8 km
1000 to 3000 ft
1500m to 5 km
500 to 1000 ft
800 to 1500m
200 to 500 ft
< 800m
< 200 ft
Symbols :   Thunderstorms  Fog  Heavy snow  Heavy precipitations  Wind > 20 kt
SIGMETs :     Misc.  Thunderstorms  Icing  Turbulence  Mountain Waves  Volcanic Ashes






- Airport Elevation : 623 ft


LFLH - Chalon-Champforgeuil

CURRENT METAR :
  • 231300Z AUTO 04011G22KT 340V090 CAVOK 12/M03 Q1015

EXPIRED METARs :
  • 231230Z AUTO 03010KT 010V070 CAVOK 11/M02 Q1016
  • 231200Z AUTO 03010KT 350V080 CAVOK 10/M02 Q1016
  • 231130Z AUTO 02012KT 340V050 CAVOK 10/M01 Q1016
  • 231100Z AUTO 02011G22KT 340V080 CAVOK 10/M02 Q1016
  • 231030Z AUTO 02011KT 350V080 9999 SCT049 BKN062 09/M02 Q1016
  • 231000Z AUTO 02011KT 350V070 9999 SCT044 SCT062 10/M00 Q1016
  • 230930Z AUTO 02010KT 350V070 9999 FEW038 10/02 Q1017
  • 230900Z AUTO 02013KT 350V070 CAVOK 09/00 Q1017
  • 230830Z AUTO 03011KT 350V080 CAVOK 08/01 Q1017

TAF N/A



MET'MAP, your aeronautical weather chart ! - Copyright ORBIFLY December 2007 - Disclaimer

ORBIFLY MET'MAP TEAM :

Programming & Development : Alexandra Zaïnal
Original concept : Baudouin d'Aumeries
Technical & hardware support : Manuel Goepfert
Assistance : Marc-Olivier Méhu




SOURCES & CREDITS :

   NOAA